sensor_id;sensor_type;location;lat;lon;timestamp;pressure;altitude;pressure_sealevel;temperature;humidity
72336;BME280;65062;48.446;8.834;2022-11-20T00:00:39;97044.78;;;2.48;91.28
72336;BME280;65062;48.446;8.834;2022-11-20T00:03:40;97042.00;;;2.59;91.42
72336;BME280;65062;48.446;8.834;2022-11-20T00:06:41;97034.28;;;2.49;91.16
72336;BME280;65062;48.446;8.834;2022-11-20T00:09:41;97038.72;;;2.39;90.27
72336;BME280;65062;48.446;8.834;2022-11-20T00:12:41;97033.25;;;2.25;90.34
72336;BME280;65062;48.446;8.834;2022-11-20T00:15:42;97037.69;;;2.05;90.03
72336;BME280;65062;48.446;8.834;2022-11-20T00:18:42;97037.75;;;1.95;90.99
72336;BME280;65062;48.446;8.834;2022-11-20T00:21:43;97039.53;;;1.95;91.19
72336;BME280;65062;48.446;8.834;2022-11-20T00:24:44;97028.94;;;1.88;91.66
72336;BME280;65062;48.446;8.834;2022-11-20T00:27:44;97028.63;;;2.01;91.46
72336;BME280;65062;48.446;8.834;2022-11-20T00:30:44;97024.59;;;1.89;91.56
72336;BME280;65062;48.446;8.834;2022-11-20T00:33:45;97030.19;;;1.84;92.12
72336;BME280;65062;48.446;8.834;2022-11-20T00:36:46;97030.25;;;1.75;91.60
72336;BME280;65062;48.446;8.834;2022-11-20T00:39:46;97027.69;;;1.65;91.59
72336;BME280;65062;48.446;8.834;2022-11-20T00:42:46;97030.00;;;1.68;91.79
72336;BME280;65062;48.446;8.834;2022-11-20T00:45:47;97036.63;;;1.71;92.75
72336;BME280;65062;48.446;8.834;2022-11-20T00:48:47;97035.84;;;1.70;92.21
72336;BME280;65062;48.446;8.834;2022-11-20T00:51:47;97039.13;;;1.53;92.54
72336;BME280;65062;48.446;8.834;2022-11-20T00:54:48;97041.84;;;1.52;92.01
72336;BME280;65062;48.446;8.834;2022-11-20T00:57:48;97043.66;;;1.42;91.58
72336;BME280;65062;48.446;8.834;2022-11-20T01:00:49;97044.75;;;1.39;91.58
72336;BME280;65062;48.446;8.834;2022-11-20T01:03:51;97048.72;;;1.34;91.76
72336;BME280;65062;48.446;8.834;2022-11-20T01:06:52;97047.09;;;1.23;92.23
72336;BME280;65062;48.446;8.834;2022-11-20T01:09:52;97056.91;;;1.10;91.82
72336;BME280;65062;48.446;8.834;2022-11-20T01:12:52;97050.41;;;0.97;91.67
72336;BME280;65062;48.446;8.834;2022-11-20T01:16:14;97062.47;;;0.87;91.27
72336;BME280;65062;48.446;8.834;2022-11-20T01:19:17;97063.00;;;0.71;91.86
72336;BME280;65062;48.446;8.834;2022-11-20T01:22:18;97065.44;;;0.63;92.11
72336;BME280;65062;48.446;8.834;2022-11-20T01:25:18;97071.53;;;0.72;93.03
72336;BME280;65062;48.446;8.834;2022-11-20T01:28:18;97067.47;;;0.60;92.84
72336;BME280;65062;48.446;8.834;2022-11-20T01:31:21;97076.44;;;0.75;93.42
72336;BME280;65062;48.446;8.834;2022-11-20T01:34:22;97074.94;;;0.82;93.35
72336;BME280;65062;48.446;8.834;2022-11-20T01:37:22;97081.44;;;0.57;92.69
72336;BME280;65062;48.446;8.834;2022-11-20T01:40:23;97080.63;;;0.66;93.56
72336;BME280;65062;48.446;8.834;2022-11-20T01:43:23;97079.53;;;0.78;93.21
72336;BME280;65062;48.446;8.834;2022-11-20T01:46:25;97079.69;;;0.86;93.75
72336;BME280;65062;48.446;8.834;2022-11-20T01:49:37;97074.94;;;0.82;93.29
72336;BME280;65062;48.446;8.834;2022-11-20T01:53:02;97076.94;;;0.78;93.55
72336;BME280;65062;48.446;8.834;2022-11-20T01:56:06;97077.78;;;0.98;93.98
72336;BME280;65062;48.446;8.834;2022-11-20T01:59:10;97076.94;;;1.16;94.20
72336;BME280;65062;48.446;8.834;2022-11-20T02:02:11;97081.41;;;1.33;94.43
72336;BME280;65062;48.446;8.834;2022-11-20T02:05:23;97076.75;;;1.46;94.86
72336;BME280;65062;48.446;8.834;2022-11-20T02:08:25;97078.56;;;1.73;94.27
72336;BME280;65062;48.446;8.834;2022-11-20T02:11:26;97073.47;;;1.90;94.83
72336;BME280;65062;48.446;8.834;2022-11-20T02:14:26;97071.94;;;2.07;94.21
72336;BME280;65062;48.446;8.834;2022-11-20T02:17:27;97071.31;;;2.40;93.87
72336;BME280;65062;48.446;8.834;2022-11-20T02:20:28;97066.28;;;2.83;92.60
72336;BME280;65062;48.446;8.834;2022-11-20T02:26:53;97072.81;;;3.30;89.17
72336;BME280;65062;48.446;8.834;2022-11-20T02:30:00;97065.72;;;3.32;88.68
72336;BME280;65062;48.446;8.834;2022-11-20T02:33:02;97069.47;;;3.38;88.19
72336;BME280;65062;48.446;8.834;2022-11-20T02:36:02;97068.91;;;3.52;87.16
72336;BME280;65062;48.446;8.834;2022-11-20T02:39:04;97067.00;;;3.62;86.45
72336;BME280;65062;48.446;8.834;2022-11-20T02:42:05;97063.66;;;3.69;86.15
72336;BME280;65062;48.446;8.834;2022-11-20T02:45:06;97066.88;;;3.63;86.01
72336;BME280;65062;48.446;8.834;2022-11-20T02:48:06;97060.44;;;3.42;86.25
72336;BME280;65062;48.446;8.834;2022-11-20T02:51:07;97065.16;;;3.46;85.97
72336;BME280;65062;48.446;8.834;2022-11-20T02:54:08;97062.34;;;3.40;86.25
72336;BME280;65062;48.446;8.834;2022-11-20T02:57:08;97059.88;;;3.30;85.83
72336;BME280;65062;48.446;8.834;2022-11-20T03:00:09;97060.41;;;3.16;86.18
72336;BME280;65062;48.446;8.834;2022-11-20T03:03:09;97052.81;;;2.97;86.99
72336;BME280;65062;48.446;8.834;2022-11-20T03:06:10;97057.84;;;2.81;87.29
72336;BME280;65062;48.446;8.834;2022-11-20T03:09:10;97057.91;;;3.07;87.20
72336;BME280;65062;48.446;8.834;2022-11-20T03:12:11;97048.41;;;2.90;87.38
72336;BME280;65062;48.446;8.834;2022-11-20T03:15:11;97047.06;;;2.68;87.95
72336;BME280;65062;48.446;8.834;2022-11-20T03:18:11;97044.19;;;2.71;88.01
72336;BME280;65062;48.446;8.834;2022-11-20T03:21:13;97047.06;;;2.51;88.16
72336;BME280;65062;48.446;8.834;2022-11-20T03:24:14;97040.19;;;2.42;89.03
72336;BME280;65062;48.446;8.834;2022-11-20T03:27:15;97034.19;;;2.23;88.93
72336;BME280;65062;48.446;8.834;2022-11-20T03:30:15;97040.25;;;2.14;90.01
72336;BME280;65062;48.446;8.834;2022-11-20T03:33:15;97042.13;;;2.12;89.86
72336;BME280;65062;48.446;8.834;2022-11-20T03:36:17;97045.59;;;2.03;90.62
72336;BME280;65062;48.446;8.834;2022-11-20T03:39:18;97049.91;;;2.03;90.82
72336;BME280;65062;48.446;8.834;2022-11-20T03:42:18;97050.25;;;1.90;90.79
72336;BME280;65062;48.446;8.834;2022-11-20T03:45:37;97055.31;;;1.82;91.30
72336;BME280;65062;48.446;8.834;2022-11-20T03:48:37;97052.66;;;1.74;91.61
72336;BME280;65062;48.446;8.834;2022-11-20T03:51:38;97057.81;;;1.74;91.58
72336;BME280;65062;48.446;8.834;2022-11-20T03:54:38;97052.53;;;1.66;91.21
72336;BME280;65062;48.446;8.834;2022-11-20T03:57:39;97050.50;;;1.70;91.80
72336;BME280;65062;48.446;8.834;2022-11-20T04:00:39;97051.88;;;1.55;91.72
72336;BME280;65062;48.446;8.834;2022-11-20T04:03:40;97056.94;;;1.47;91.18
72336;BME280;65062;48.446;8.834;2022-11-20T04:06:41;97064.31;;;1.32;91.55
72336;BME280;65062;48.446;8.834;2022-11-20T04:09:41;97065.16;;;1.14;91.21
72336;BME280;65062;48.446;8.834;2022-11-20T04:12:42;97070.44;;;1.12;92.51
72336;BME280;65062;48.446;8.834;2022-11-20T04:15:42;97063.78;;;1.00;92.05
72336;BME280;65062;48.446;8.834;2022-11-20T04:18:43;97063.41;;;0.95;92.51
72336;BME280;65062;48.446;8.834;2022-11-20T04:21:44;97065.03;;;0.96;92.90
72336;BME280;65062;48.446;8.834;2022-11-20T04:24:44;97060.13;;;1.12;92.55
72336;BME280;65062;48.446;8.834;2022-11-20T04:27:45;97065.56;;;1.09;92.76
72336;BME280;65062;48.446;8.834;2022-11-20T04:30:45;97065.97;;;1.14;92.33
72336;BME280;65062;48.446;8.834;2022-11-20T04:33:46;97062.97;;;1.19;92.78
72336;BME280;65062;48.446;8.834;2022-11-20T04:36:47;97069.56;;;1.40;93.58
72336;BME280;65062;48.446;8.834;2022-11-20T04:39:47;97074.03;;;1.38;93.48
72336;BME280;65062;48.446;8.834;2022-11-20T04:42:48;97069.28;;;1.43;92.98
72336;BME280;65062;48.446;8.834;2022-11-20T04:45:56;97066.84;;;1.51;93.72
72336;BME280;65062;48.446;8.834;2022-11-20T04:48:56;97079.56;;;1.62;93.60
72336;BME280;65062;48.446;8.834;2022-11-20T04:51:57;97069.38;;;1.70;93.65
72336;BME280;65062;48.446;8.834;2022-11-20T04:54:58;97071.72;;;1.91;93.82
72336;BME280;65062;48.446;8.834;2022-11-20T04:57:58;97064.50;;;1.94;93.88
72336;BME280;65062;48.446;8.834;2022-11-20T05:01:16;97061.34;;;2.00;93.89
72336;BME280;65062;48.446;8.834;2022-11-20T05:04:17;97059.53;;;2.10;93.85
72336;BME280;65062;48.446;8.834;2022-11-20T05:07:17;97058.59;;;2.11;93.97
72336;BME280;65062;48.446;8.834;2022-11-20T05:10:18;97064.78;;;2.18;93.47
72336;BME280;65062;48.446;8.834;2022-11-20T05:13:18;97053.94;;;2.15;92.98
72336;BME280;65062;48.446;8.834;2022-11-20T05:16:21;97056.00;;;2.11;92.87
72336;BME280;65062;48.446;8.834;2022-11-20T05:19:22;97051.00;;;2.10;92.96
72336;BME280;65062;48.446;8.834;2022-11-20T05:22:22;97041.75;;;2.07;92.35
72336;BME280;65062;48.446;8.834;2022-11-20T05:25:23;97047.03;;;2.33;91.90
72336;BME280;65062;48.446;8.834;2022-11-20T05:28:24;97042.91;;;2.40;91.56
72336;BME280;65062;48.446;8.834;2022-11-20T05:31:25;97050.38;;;2.61;90.12
72336;BME280;65062;48.446;8.834;2022-11-20T05:34:25;97054.97;;;2.49;90.35
72336;BME280;65062;48.446;8.834;2022-11-20T05:37:26;97051.13;;;2.53;89.80
72336;BME280;65062;48.446;8.834;2022-11-20T05:40:26;97051.06;;;2.45;90.16
72336;BME280;65062;48.446;8.834;2022-11-20T05:43:26;97056.88;;;2.47;90.37
72336;BME280;65062;48.446;8.834;2022-11-20T05:46:27;97057.41;;;2.51;89.58
72336;BME280;65062;48.446;8.834;2022-11-20T05:49:27;97047.16;;;2.59;89.35
72336;BME280;65062;48.446;8.834;2022-11-20T05:52:28;97050.09;;;2.64;88.94
72336;BME280;65062;48.446;8.834;2022-11-20T05:55:29;97048.69;;;2.69;88.76
72336;BME280;65062;48.446;8.834;2022-11-20T05:58:30;97044.19;;;2.71;88.71
72336;BME280;65062;48.446;8.834;2022-11-20T06:01:31;97038.22;;;2.88;89.18
72336;BME280;65062;48.446;8.834;2022-11-20T06:04:31;97044.56;;;2.94;88.42
72336;BME280;65062;48.446;8.834;2022-11-20T06:07:32;97048.06;;;3.28;86.83
72336;BME280;65062;48.446;8.834;2022-11-20T06:10:32;97045.41;;;3.20;86.62
72336;BME280;65062;48.446;8.834;2022-11-20T06:13:33;97045.69;;;3.17;87.11
72336;BME280;65062;48.446;8.834;2022-11-20T06:16:34;97042.44;;;3.15;87.82
72336;BME280;65062;48.446;8.834;2022-11-20T06:19:34;97047.75;;;3.13;87.82
72336;BME280;65062;48.446;8.834;2022-11-20T06:22:34;97045.50;;;3.10;88.16
72336;BME280;65062;48.446;8.834;2022-11-20T06:25:39;97053.03;;;3.47;87.29
72336;BME280;65062;48.446;8.834;2022-11-20T06:28:39;97051.69;;;3.68;85.94
72336;BME280;65062;48.446;8.834;2022-11-20T06:31:40;97044.09;;;3.67;86.27
72336;BME280;65062;48.446;8.834;2022-11-20T06:34:42;97049.72;;;3.88;85.56
72336;BME280;65062;48.446;8.834;2022-11-20T06:37:42;97046.41;;;4.11;84.22
72336;BME280;65062;48.446;8.834;2022-11-20T06:40:43;97037.28;;;3.99;84.69
72336;BME280;65062;48.446;8.834;2022-11-20T06:43:43;97044.91;;;4.01;85.53
72336;BME280;65062;48.446;8.834;2022-11-20T06:46:44;97049.63;;;4.05;85.20
72336;BME280;65062;48.446;8.834;2022-11-20T06:49:44;97046.53;;;4.02;84.62
72336;BME280;65062;48.446;8.834;2022-11-20T06:52:44;97045.53;;;4.03;85.78
72336;BME280;65062;48.446;8.834;2022-11-20T06:55:46;97041.19;;;4.03;86.39
72336;BME280;65062;48.446;8.834;2022-11-20T06:58:47;97039.31;;;4.21;85.54
72336;BME280;65062;48.446;8.834;2022-11-20T07:01:47;97044.97;;;4.17;85.68
72336;BME280;65062;48.446;8.834;2022-11-20T07:04:48;97053.88;;;4.14;85.58
72336;BME280;65062;48.446;8.834;2022-11-20T07:07:48;97052.28;;;4.21;85.13
72336;BME280;65062;48.446;8.834;2022-11-20T07:10:48;97049.38;;;4.32;85.57
72336;BME280;65062;48.446;8.834;2022-11-20T07:13:49;97052.94;;;4.31;85.07
72336;BME280;65062;48.446;8.834;2022-11-20T07:16:49;97055.56;;;4.40;84.27
72336;BME280;65062;48.446;8.834;2022-11-20T07:19:50;97060.28;;;4.52;84.12
72336;BME280;65062;48.446;8.834;2022-11-20T07:22:57;97056.78;;;4.77;82.24
72336;BME280;65062;48.446;8.834;2022-11-20T07:25:58;97058.69;;;4.75;82.22
72336;BME280;65062;48.446;8.834;2022-11-20T07:29:02;97064.72;;;4.84;82.98
72336;BME280;65062;48.446;8.834;2022-11-20T07:32:04;97065.53;;;4.92;83.15
72336;BME280;65062;48.446;8.834;2022-11-20T07:35:04;97060.84;;;5.04;83.32
72336;BME280;65062;48.446;8.834;2022-11-20T07:38:04;97058.09;;;5.29;81.77
72336;BME280;65062;48.446;8.834;2022-11-20T07:41:05;97064.88;;;5.46;81.63
72336;BME280;65062;48.446;8.834;2022-11-20T07:44:05;97056.75;;;5.65;80.90
72336;BME280;65062;48.446;8.834;2022-11-20T07:47:05;97065.47;;;5.88;79.63
72336;BME280;65062;48.446;8.834;2022-11-20T07:50:06;97059.28;;;5.97;78.93
72336;BME280;65062;48.446;8.834;2022-11-20T07:53:07;97065.25;;;6.14;78.17
72336;BME280;65062;48.446;8.834;2022-11-20T07:56:08;97068.94;;;6.19;78.17
72336;BME280;65062;48.446;8.834;2022-11-20T07:59:08;97071.69;;;6.26;77.36
72336;BME280;65062;48.446;8.834;2022-11-20T08:02:10;97076.72;;;6.27;78.23
72336;BME280;65062;48.446;8.834;2022-11-20T08:05:11;97075.72;;;6.28;76.69
72336;BME280;65062;48.446;8.834;2022-11-20T08:08:11;97071.47;;;6.35;77.78
72336;BME280;65062;48.446;8.834;2022-11-20T08:11:12;97080.53;;;6.47;76.66
72336;BME280;65062;48.446;8.834;2022-11-20T08:14:31;97080.25;;;6.43;78.09
72336;BME280;65062;48.446;8.834;2022-11-20T08:17:31;97089.81;;;6.42;77.74
72336;BME280;65062;48.446;8.834;2022-11-20T08:20:32;97077.31;;;6.37;77.06
72336;BME280;65062;48.446;8.834;2022-11-20T08:23:32;97083.28;;;6.46;77.31
72336;BME280;65062;48.446;8.834;2022-11-20T08:26:34;97084.72;;;6.48;76.87
72336;BME280;65062;48.446;8.834;2022-11-20T08:29:34;97090.47;;;6.44;77.64
72336;BME280;65062;48.446;8.834;2022-11-20T08:32:35;97094.78;;;6.52;76.32
72336;BME280;65062;48.446;8.834;2022-11-20T08:35:37;97097.94;;;6.47;76.27
72336;BME280;65062;48.446;8.834;2022-11-20T08:38:38;97104.25;;;6.44;77.85
72336;BME280;65062;48.446;8.834;2022-11-20T08:41:38;97108.59;;;6.52;77.19
72336;BME280;65062;48.446;8.834;2022-11-20T08:44:39;97108.75;;;6.59;77.51
72336;BME280;65062;48.446;8.834;2022-11-20T08:47:39;97117.59;;;6.72;76.45
72336;BME280;65062;48.446;8.834;2022-11-20T08:50:40;97109.25;;;6.85;77.21
72336;BME280;65062;48.446;8.834;2022-11-20T08:53:41;97108.25;;;6.86;76.62
72336;BME280;65062;48.446;8.834;2022-11-20T08:56:41;97118.31;;;6.89;77.37
72336;BME280;65062;48.446;8.834;2022-11-20T08:59:42;97117.72;;;6.87;76.21
72336;BME280;65062;48.446;8.834;2022-11-20T09:02:42;97116.47;;;6.97;75.42
72336;BME280;65062;48.446;8.834;2022-11-20T09:05:42;97121.84;;;6.96;76.54
72336;BME280;65062;48.446;8.834;2022-11-20T09:08:43;97113.03;;;7.05;76.21
72336;BME280;65062;48.446;8.834;2022-11-20T09:11:43;97114.78;;;6.90;76.40
72336;BME280;65062;48.446;8.834;2022-11-20T09:14:43;97118.31;;;6.89;77.27
72336;BME280;65062;48.446;8.834;2022-11-20T09:17:53;97119.56;;;7.01;77.42
72336;BME280;65062;48.446;8.834;2022-11-20T09:20:58;97125.75;;;7.00;77.59
72336;BME280;65062;48.446;8.834;2022-11-20T09:23:58;97120.91;;;6.97;78.67
72336;BME280;65062;48.446;8.834;2022-11-20T09:27:01;97125.41;;;7.03;77.96
72336;BME280;65062;48.446;8.834;2022-11-20T09:30:03;97130.97;;;7.00;78.59
72336;BME280;65062;48.446;8.834;2022-11-20T09:33:04;97130.97;;;7.00;78.61
72336;BME280;65062;48.446;8.834;2022-11-20T09:36:05;97139.00;;;7.13;78.06
72336;BME280;65062;48.446;8.834;2022-11-20T09:39:05;97135.72;;;7.19;78.35
72336;BME280;65062;48.446;8.834;2022-11-20T09:48:42;97154.22;;;7.24;79.02
72336;BME280;65062;48.446;8.834;2022-11-20T09:51:58;97142.44;;;7.13;79.04
72336;BME280;65062;48.446;8.834;2022-11-20T09:54:59;97136.59;;;7.34;78.60
72336;BME280;65062;48.446;8.834;2022-11-20T09:58:01;97130.06;;;7.38;81.04
72336;BME280;65062;48.446;8.834;2022-11-20T10:01:17;97137.66;;;7.62;78.00
72336;BME280;65062;48.446;8.834;2022-11-20T10:04:20;97142.03;;;7.47;76.53
72336;BME280;65062;48.446;8.834;2022-11-20T10:30:25;97144.16;;;7.43;77.63
72336;BME280;65062;48.446;8.834;2022-11-20T10:33:27;97152.13;;;7.42;76.38
72336;BME280;65062;48.446;8.834;2022-11-20T10:36:34;97159.38;;;7.32;78.31
72336;BME280;65062;48.446;8.834;2022-11-20T10:39:44;97149.16;;;7.53;77.04
72336;BME280;65062;48.446;8.834;2022-11-20T10:42:52;97148.84;;;7.70;77.40
72336;BME280;65062;48.446;8.834;2022-11-20T10:46:08;97141.94;;;7.77;75.71
72336;BME280;65062;48.446;8.834;2022-11-20T10:49:14;97141.09;;;7.77;73.97
72336;BME280;65062;48.446;8.834;2022-11-20T10:55:50;97146.28;;;8.14;73.03
72336;BME280;65062;48.446;8.834;2022-11-20T11:02:31;97139.03;;;8.24;70.98
72336;BME280;65062;48.446;8.834;2022-11-20T11:05:39;97141.03;;;8.51;71.88
72336;BME280;65062;48.446;8.834;2022-11-20T11:08:42;97140.41;;;8.34;72.93
72336;BME280;65062;48.446;8.834;2022-11-20T11:11:43;97132.00;;;8.10;73.68
72336;BME280;65062;48.446;8.834;2022-11-20T11:14:55;97118.06;;;10.77;67.19
72336;BME280;65062;48.446;8.834;2022-11-20T11:17:56;97126.81;;;10.97;64.04
72336;BME280;65062;48.446;8.834;2022-11-20T11:20:57;97108.44;;;10.36;65.51
72336;BME280;65062;48.446;8.834;2022-11-20T11:24:02;97097.75;;;12.04;62.83
72336;BME280;65062;48.446;8.834;2022-11-20T11:27:11;97097.09;;;12.15;57.54
72336;BME280;65062;48.446;8.834;2022-11-20T11:30:14;97093.22;;;11.07;60.76
72336;BME280;65062;48.446;8.834;2022-11-20T11:33:21;97089.81;;;11.19;62.48
72336;BME280;65062;48.446;8.834;2022-11-20T11:36:22;97075.34;;;14.56;52.27
72336;BME280;65062;48.446;8.834;2022-11-20T11:39:27;97090.56;;;16.48;44.84
72336;BME280;65062;48.446;8.834;2022-11-20T11:42:29;97075.72;;;16.01;45.27
72336;BME280;65062;48.446;8.834;2022-11-20T11:45:30;97072.03;;;13.82;49.90
72336;BME280;65062;48.446;8.834;2022-11-20T11:48:30;97080.16;;;12.11;54.57
72336;BME280;65062;48.446;8.834;2022-11-20T11:51:36;97080.91;;;10.06;59.46
72336;BME280;65062;48.446;8.834;2022-11-20T11:55:01;97070.63;;;9.50;62.19
72336;BME280;65062;48.446;8.834;2022-11-20T12:04:37;97077.72;;;8.57;69.42
72336;BME280;65062;48.446;8.834;2022-11-20T12:08:15;97064.59;;;8.86;68.96
72336;BME280;65062;48.446;8.834;2022-11-20T12:14:43;97055.50;;;10.88;62.11
72336;BME280;65062;48.446;8.834;2022-11-20T12:17:45;97050.53;;;11.13;59.04
72336;BME280;65062;48.446;8.834;2022-11-20T12:21:01;97051.16;;;10.54;59.62
72336;BME280;65062;48.446;8.834;2022-11-20T12:31:18;97020.31;;;19.06;39.01
72336;BME280;65062;48.446;8.834;2022-11-20T12:34:54;97020.88;;;20.39;34.41
72336;BME280;65062;48.446;8.834;2022-11-20T12:52:06;97013.72;;;22.21;30.26
72336;BME280;65062;48.446;8.834;2022-11-20T12:55:23;97020.75;;;20.76;31.34
72336;BME280;65062;48.446;8.834;2022-11-20T12:59:00;97027.97;;;17.83;36.62
72336;BME280;65062;48.446;8.834;2022-11-20T13:02:23;97022.09;;;19.48;35.53
72336;BME280;65062;48.446;8.834;2022-11-20T13:05:37;97031.47;;;19.97;33.38
72336;BME280;65062;48.446;8.834;2022-11-20T13:08:40;97011.97;;;19.19;33.15
72336;BME280;65062;48.446;8.834;2022-11-20T13:15:58;97037.38;;;14.10;43.93
72336;BME280;65062;48.446;8.834;2022-11-20T13:18:37;97037.19;;;12.12;48.81
72336;BME280;65062;48.446;8.834;2022-11-20T13:21:39;97022.09;;;10.97;53.58
72336;BME280;65062;48.446;8.834;2022-11-20T13:24:50;97028.84;;;10.11;55.28
72336;BME280;65062;48.446;8.834;2022-11-20T13:27:51;97036.50;;;9.58;57.43
72336;BME280;65062;48.446;8.834;2022-11-20T13:30:53;97025.69;;;9.33;59.65
72336;BME280;65062;48.446;8.834;2022-11-20T13:33:54;97017.19;;;9.04;60.87
72336;BME280;65062;48.446;8.834;2022-11-20T13:36:57;97011.66;;;9.13;60.92
72336;BME280;65062;48.446;8.834;2022-11-20T13:46:13;96994.63;;;8.75;61.56
72336;BME280;65062;48.446;8.834;2022-11-20T14:02:37;96976.69;;;8.87;61.05
72336;BME280;65062;48.446;8.834;2022-11-20T14:05:45;96981.47;;;8.83;61.37
72336;BME280;65062;48.446;8.834;2022-11-20T14:08:49;96972.34;;;8.73;60.76
72336;BME280;65062;48.446;8.834;2022-11-20T14:11:50;96966.81;;;8.61;62.31
72336;BME280;65062;48.446;8.834;2022-11-20T14:14:53;96968.97;;;8.57;63.49
72336;BME280;65062;48.446;8.834;2022-11-20T14:17:54;96968.31;;;8.70;61.83
72336;BME280;65062;48.446;8.834;2022-11-20T14:20:55;96964.00;;;8.63;61.44
72336;BME280;65062;48.446;8.834;2022-11-20T14:24:05;96972.69;;;8.48;62.58
72336;BME280;65062;48.446;8.834;2022-11-20T14:27:18;96963.84;;;8.28;64.01
72336;BME280;65062;48.446;8.834;2022-11-20T14:30:22;96966.09;;;8.17;63.07
72336;BME280;65062;48.446;8.834;2022-11-20T14:33:25;96961.25;;;8.14;66.89
72336;BME280;65062;48.446;8.834;2022-11-20T14:36:27;96966.22;;;7.94;66.10
72336;BME280;65062;48.446;8.834;2022-11-20T14:39:33;96966.31;;;8.01;64.64
72336;BME280;65062;48.446;8.834;2022-11-20T14:42:34;96959.28;;;8.16;66.23
72336;BME280;65062;48.446;8.834;2022-11-20T14:45:34;96962.19;;;7.92;63.04
72336;BME280;65062;48.446;8.834;2022-11-20T14:48:44;96952.25;;;7.81;63.39
72336;BME280;65062;48.446;8.834;2022-11-20T14:51:45;96950.91;;;7.70;65.22
72336;BME280;65062;48.446;8.834;2022-11-20T14:54:51;96948.66;;;7.53;65.92
72336;BME280;65062;48.446;8.834;2022-11-20T14:58:03;96946.06;;;7.53;67.33
72336;BME280;65062;48.446;8.834;2022-11-20T15:01:06;96957.19;;;7.47;66.93
72336;BME280;65062;48.446;8.834;2022-11-20T15:04:09;96952.03;;;7.39;67.79
72336;BME280;65062;48.446;8.834;2022-11-20T15:07:10;96947.72;;;7.31;67.01
72336;BME280;65062;48.446;8.834;2022-11-20T15:10:26;96931.03;;;7.26;67.34
72336;BME280;65062;48.446;8.834;2022-11-20T15:13:38;96922.75;;;7.08;68.48
72336;BME280;65062;48.446;8.834;2022-11-20T15:16:39;96917.28;;;7.03;69.49
72336;BME280;65062;48.446;8.834;2022-11-20T15:19:39;96908.66;;;6.88;71.77
72336;BME280;65062;48.446;8.834;2022-11-20T15:22:39;96908.16;;;6.70;72.30
72336;BME280;65062;48.446;8.834;2022-11-20T15:25:41;96909.00;;;6.62;72.60
72336;BME280;65062;48.446;8.834;2022-11-20T15:28:43;96904.38;;;6.35;72.47
72336;BME280;65062;48.446;8.834;2022-11-20T15:31:44;96900.03;;;6.27;73.57
72336;BME280;65062;48.446;8.834;2022-11-20T15:34:45;96893.56;;;6.01;75.16
72336;BME280;65062;48.446;8.834;2022-11-20T15:37:45;96901.44;;;5.77;76.03
72336;BME280;65062;48.446;8.834;2022-11-20T15:40:46;96897.06;;;5.77;76.13
72336;BME280;65062;48.446;8.834;2022-11-20T15:43:46;96893.72;;;5.61;77.69
72336;BME280;65062;48.446;8.834;2022-11-20T15:46:47;96895.88;;;5.57;78.85
72336;BME280;65062;48.446;8.834;2022-11-20T15:49:47;96893.25;;;5.57;79.22
72336;BME280;65062;48.446;8.834;2022-11-20T15:52:47;96888.97;;;5.34;79.01
72336;BME280;65062;48.446;8.834;2022-11-20T15:55:48;96890.41;;;5.36;80.00
72336;BME280;65062;48.446;8.834;2022-11-20T15:58:48;96895.84;;;5.19;80.20
72336;BME280;65062;48.446;8.834;2022-11-20T16:01:49;96896.16;;;5.16;80.46
72336;BME280;65062;48.446;8.834;2022-11-20T16:04:49;96894.00;;;5.27;78.61
72336;BME280;65062;48.446;8.834;2022-11-20T16:07:50;96895.13;;;5.71;72.77
72336;BME280;65062;48.446;8.834;2022-11-20T16:10:51;96897.25;;;6.06;70.68
72336;BME280;65062;48.446;8.834;2022-11-20T16:13:51;96893.41;;;5.94;72.23
72336;BME280;65062;48.446;8.834;2022-11-20T16:17:11;96890.25;;;6.07;70.99
72336;BME280;65062;48.446;8.834;2022-11-20T16:20:12;96893.56;;;6.01;71.08
72336;BME280;65062;48.446;8.834;2022-11-20T16:23:13;96881.25;;;5.95;72.08
72336;BME280;65062;48.446;8.834;2022-11-20T16:26:17;96882.84;;;5.96;70.13
72336;BME280;65062;48.446;8.834;2022-11-20T16:29:18;96885.50;;;5.80;72.03
72336;BME280;65062;48.446;8.834;2022-11-20T16:32:18;96887.81;;;5.75;72.70
72336;BME280;65062;48.446;8.834;2022-11-20T16:35:19;96882.81;;;5.65;73.13
72336;BME280;65062;48.446;8.834;2022-11-20T16:38:19;96877.31;;;5.60;74.36
72336;BME280;65062;48.446;8.834;2022-11-20T16:41:20;96880.22;;;5.73;72.83
72336;BME280;65062;48.446;8.834;2022-11-20T16:44:21;96872.88;;;5.77;72.91
72336;BME280;65062;48.446;8.834;2022-11-20T16:47:21;96870.88;;;5.87;70.42
72336;BME280;65062;48.446;8.834;2022-11-20T16:50:21;96868.56;;;6.00;69.88
72336;BME280;65062;48.446;8.834;2022-11-20T16:53:22;96874.03;;;6.05;69.66
72336;BME280;65062;48.446;8.834;2022-11-20T16:56:24;96867.78;;;5.91;71.40
72336;BME280;65062;48.446;8.834;2022-11-20T16:59:25;96864.41;;;5.91;71.39
72336;BME280;65062;48.446;8.834;2022-11-20T17:02:26;96864.91;;;5.78;71.78
72336;BME280;65062;48.446;8.834;2022-11-20T17:05:28;96860.34;;;5.88;70.64
72336;BME280;65062;48.446;8.834;2022-11-20T17:08:29;96855.50;;;5.77;71.52
72336;BME280;65062;48.446;8.834;2022-11-20T17:11:29;96851.34;;;5.68;72.64
72336;BME280;65062;48.446;8.834;2022-11-20T17:14:30;96853.50;;;5.57;73.62
72336;BME280;65062;48.446;8.834;2022-11-20T17:17:30;96843.25;;;5.63;74.42
72336;BME280;65062;48.446;8.834;2022-11-20T17:20:31;96840.59;;;5.79;73.94
72336;BME280;65062;48.446;8.834;2022-11-20T17:23:36;96846.50;;;5.65;74.72
72336;BME280;65062;48.446;8.834;2022-11-20T17:26:39;96849.16;;;5.57;74.97
72336;BME280;65062;48.446;8.834;2022-11-20T17:29:40;96859.22;;;5.44;75.84
72336;BME280;65062;48.446;8.834;2022-11-20T17:32:40;96851.84;;;5.33;75.77
72336;BME280;65062;48.446;8.834;2022-11-20T17:35:44;96867.91;;;5.21;76.27
72336;BME280;65062;48.446;8.834;2022-11-20T17:38:45;96861.78;;;5.14;77.03
72336;BME280;65062;48.446;8.834;2022-11-20T17:41:45;96861.00;;;5.13;77.45
72336;BME280;65062;48.446;8.834;2022-11-20T17:45:06;96856.47;;;5.07;77.98
72336;BME280;65062;48.446;8.834;2022-11-20T17:48:06;96859.41;;;5.04;79.15
72336;BME280;65062;48.446;8.834;2022-11-20T17:51:08;96850.47;;;5.07;79.44
72336;BME280;65062;48.446;8.834;2022-11-20T17:54:09;96842.38;;;5.02;79.79